Time;durP1;ratioP1;P1;durP2;ratioP2;P2;SDS_P1;SDS_P2;PMS_P1;PMS_P2;Temp;Humidity;BMP_temperature;BMP_pressure;BME280_temperature;BME280_humidity;BME280_pressure;Samples;Min_cycle;Max_cycle;Signal;HPM_P1;HPM_P2
2021/10/31 00:01:38;;;;;;;0.40;0.40;;;;;;;9.56;100.00;99606.66;5044075;28;20455;-50
2021/10/31 00:04:05;;;;;;;0.90;0.90;;;;;;;9.57;100.00;99611.03;5051167;28;20463;-50
2021/10/31 00:06:32;;;;;;;0.50;0.50;;;;;;;9.56;100.00;99606.66;5043521;28;20423;-51
2021/10/31 00:08:58;;;;;;;0.83;0.83;;;;;;;9.70;100.00;99608.81;5030802;28;21023;-50
2021/10/31 00:11:25;;;;;;;0.30;0.30;;;;;;;10.03;100.00;99604.06;5039411;28;20506;-51
2021/10/31 00:13:52;;;;;;;0.90;0.87;;;;;;;9.84;100.00;99600.34;5050257;28;20454;-50
2021/10/31 00:16:18;;;;;;;0.30;0.20;;;;;;;9.66;100.00;99610.72;5042708;28;20451;-50
2021/10/31 00:18:46;;;;;;;1.47;1.37;;;;;;;9.65;100.00;99603.69;5048031;28;20941;-50
2021/10/31 00:21:12;;;;;;;0.30;0.20;;;;;;;10.15;100.00;99603.63;5046806;28;20963;-50
2021/10/31 00:23:39;;;;;;;0.70;0.70;;;;;;;9.99;100.00;99600.66;5036468;28;20455;-50
2021/10/31 00:26:06;;;;;;;0.30;0.20;;;;;;;9.77;100.00;99610.34;5047025;28;20450;-50
2021/10/31 00:28:32;;;;;;;0.30;0.20;;;;;;;9.63;100.00;99615.28;5037882;28;20494;-50
2021/10/31 00:30:59;;;;;;;0.30;0.20;;;;;;;9.81;100.00;99617.25;5046904;28;20455;-50
2021/10/31 00:33:26;;;;;;;0.40;0.20;;;;;;;9.67;100.00;99612.44;5039579;28;20453;-50
2021/10/31 00:35:53;;;;;;;0.50;0.50;;;;;;;9.72;100.00;99613.13;5042722;28;20939;-50
2021/10/31 00:38:20;;;;;;;0.30;0.20;;;;;;;9.65;100.00;99613.44;5044604;28;20555;-50
2021/10/31 00:40:46;;;;;;;2.53;2.33;;;;;;;9.65;100.00;99616.09;5044459;28;20484;-50
2021/10/31 00:43:13;;;;;;;0.40;0.33;;;;;;;9.64;100.00;99617.00;5053146;28;20870;-51
2021/10/31 00:45:41;;;;;;;0.30;0.20;;;;;;;9.61;100.00;99615.34;5046843;28;20454;-50
2021/10/31 00:48:09;;;;;;;2.73;2.63;;;;;;;9.57;100.00;99621.66;5047113;28;20495;-50
2021/10/31 00:50:36;;;;;;;0.30;0.30;;;;;;;9.57;100.00;99610.16;5045725;28;20461;-50
2021/10/31 00:53:03;;;;;;;0.30;0.20;;;;;;;9.62;100.00;99617.06;5034955;28;20876;-50
2021/10/31 00:55:30;;;;;;;1.83;1.60;;;;;;;9.74;100.00;99623.72;5038218;28;20452;-50
2021/10/31 00:57:57;;;;;;;0.30;0.20;;;;;;;9.64;100.00;99619.66;5028766;28;20475;-50
2021/10/31 01:00:24;;;;;;;1.03;1.03;;;;;;;9.73;100.00;99616.66;5039174;28;20612;-49
2021/10/31 01:02:51;;;;;;;0.30;0.20;;;;;;;10.20;100.00;99611.41;5048825;28;21004;-50
2021/10/31 01:05:21;;;;;;;0.40;0.40;;;;;;;10.24;100.00;99605.06;5044616;28;20825;-50
2021/10/31 01:08:21;;;;;;;0.30;0.30;;;;;;;10.22;100.00;99613.09;5049410;28;20544;-49
2021/10/31 01:11:06;;;;;;;1.07;1.07;;;;;;;10.37;100.00;99601.03;5029657;28;20512;-49
2021/10/31 01:13:51;;;;;;;0.30;0.20;;;;;;;10.23;100.00;99604.22;5049160;28;20450;-49
2021/10/31 01:16:36;;;;;;;0.30;0.20;;;;;;;10.24;100.00;99610.38;5036873;28;20455;-49
2021/10/31 01:19:18;;;;;;;0.37;0.30;;;;;;;10.17;100.00;99599.09;5040381;28;20470;-49
2021/10/31 01:22:07;;;;;;;0.53;0.50;;;;;;;9.90;100.00;99606.31;5037485;28;20498;-49
2021/10/31 01:24:42;;;;;;;0.50;0.50;;;;;;;9.90;100.00;99602.78;5035560;28;20459;-50
2021/10/31 01:27:38;;;;;;;2.23;1.37;;;;;;;9.93;100.00;99606.19;5030764;28;20470;-49
2021/10/31 01:30:14;;;;;;;0.30;0.20;;;;;;;9.93;100.00;99611.50;5040993;28;20455;-48
2021/10/31 01:33:03;;;;;;;1.17;1.13;;;;;;;9.94;100.00;99615.03;5038327;28;20448;-48
2021/10/31 01:35:55;;;;;;;0.30;0.20;;;;;;;9.95;100.00;99619.41;5037410;28;20988;-49
2021/10/31 01:38:55;;;;;;;1.80;1.70;;;;;;;9.90;100.00;99624.03;5051561;28;20471;-48
2021/10/31 01:41:28;;;;;;;1.50;1.40;;;;;;;9.99;100.00;99632.50;5039606;28;20463;-49
2021/10/31 01:44:07;;;;;;;0.87;0.87;;;;;;;9.89;100.00;99628.47;5033924;28;20521;-48
2021/10/31 01:46:55;;;;;;;0.30;0.20;;;;;;;10.15;100.00;99629.31;5029915;28;20944;-48
2021/10/31 01:49:31;;;;;;;1.70;1.60;;;;;;;10.31;100.00;99619.88;5042928;28;20522;-48
2021/10/31 01:52:03;;;;;;;0.30;0.20;;;;;;;10.32;100.00;99614.50;5051690;28;20795;-49
2021/10/31 01:54:47;;;;;;;0.30;0.20;;;;;;;10.04;100.00;99606.66;5040827;28;20454;-49
2021/10/31 01:57:18;;;;;;;0.30;0.20;;;;;;;10.26;100.00;99609.41;5035081;28;21042;-49
2021/10/31 01:59:48;;;;;;;0.30;0.20;;;;;;;10.41;100.00;99596.44;5040099;28;20536;-48
2021/10/31 02:02:17;;;;;;;0.97;0.90;;;;;;;9.94;100.00;99604.41;5045309;28;20509;-49
2021/10/31 02:04:50;;;;;;;0.30;0.20;;;;;;;9.80;100.00;99604.91;5052340;28;20914;-49
2021/10/31 02:07:20;;;;;;;0.30;0.20;;;;;;;9.68;100.00;99600.91;5038806;28;20506;-49
2021/10/31 02:09:49;;;;;;;0.30;0.30;;;;;;;9.53;100.00;99612.06;5042371;28;20465;-48
2021/10/31 02:12:18;;;;;;;0.30;0.20;;;;;;;9.35;100.00;99591.50;5050682;28;20425;-48
2021/10/31 02:14:47;;;;;;;0.80;0.80;;;;;;;9.26;100.00;99597.13;5039461;28;20456;-48
2021/10/31 02:17:16;;;;;;;0.30;0.20;;;;;;;8.97;100.00;99598.97;5051661;28;20474;-48
2021/10/31 02:19:45;;;;;;;0.50;0.50;;;;;;;9.28;100.00;99596.13;5038284;28;20448;-51
2021/10/31 02:22:18;;;;;;;0.30;0.20;;;;;;;9.14;100.00;99587.78;5020946;28;20519;-49
2021/10/31 02:24:45;;;;;;;0.30;0.20;;;;;;;8.93;100.00;99588.53;5035258;28;20479;-48
2021/10/31 02:27:15;;;;;;;1.80;1.70;;;;;;;8.83;100.00;99582.66;5039218;28;20483;-49
2021/10/31 02:29:56;;;;;;;0.30;0.20;;;;;;;8.72;100.00;99584.78;5036653;28;20980;-49
2021/10/31 02:32:26;;;;;;;0.30;0.20;;;;;;;8.61;100.00;99580.69;5035299;28;20547;-47
2021/10/31 02:34:54;;;;;;;0.30;0.30;;;;;;;8.50;100.00;99581.97;5038201;28;20464;-48
2021/10/31 02:37:23;;;;;;;0.30;0.20;;;;;;;8.58;100.00;99588.75;5036107;28;20471;-49
2021/10/31 02:39:49;;;;;;;0.30;0.20;;;;;;;8.59;100.00;99601.06;5040212;28;20462;-48
2021/10/31 02:42:16;;;;;;;0.40;0.40;;;;;;;8.88;100.00;99601.91;5036796;28;21011;-48
2021/10/31 02:44:43;;;;;;;0.30;0.20;;;;;;;8.62;100.00;99600.09;5042441;28;20481;-48
2021/10/31 02:47:34;;;;;;;0.60;0.60;;;;;;;8.49;100.00;99594.31;5038013;28;20471;-49
2021/10/31 02:50:01;;;;;;;0.30;0.20;;;;;;;8.50;100.00;99592.56;5028818;28;20513;-48
2021/10/31 02:52:44;;;;;;;0.30;0.20;;;;;;;8.59;100.00;99590.47;5040309;28;20462;-49
2021/10/31 02:55:23;;;;;;;2.97;2.77;;;;;;;8.75;100.00;99604.09;5043003;28;20455;-49
2021/10/31 02:58:00;;;;;;;0.77;0.77;;;;;;;8.79;100.00;99620.78;5042726;28;20463;-48
2021/10/31 03:00:29;;;;;;;0.30;0.20;;;;;;;8.72;100.00;99617.44;5038397;28;20451;-47
2021/10/31 03:02:57;;;;;;;10.53;1.73;;;;;;;8.69;100.00;99614.03;5042999;28;20452;-48
2021/10/31 03:05:24;;;;;;;2.00;2.00;;;;;;;8.92;100.00;99615.97;5040010;28;20456;-48
2021/10/31 03:07:55;;;;;;;0.30;0.30;;;;;;;9.24;100.00;99618.38;5036167;28;20483;-48
2021/10/31 03:10:21;;;;;;;1.43;1.43;;;;;;;9.35;100.00;99613.59;5041869;28;20455;-49
2021/10/31 03:12:48;;;;;;;0.30;0.23;;;;;;;9.17;100.00;99612.41;5034417;28;20456;-49
2021/10/31 03:15:16;;;;;;;2.60;1.80;;;;;;;9.02;100.00;99623.53;5037059;28;20480;-47
2021/10/31 03:17:43;;;;;;;0.30;0.20;;;;;;;9.10;100.00;99625.94;5036163;28;20503;-48
2021/10/31 03:20:10;;;;;;;1.80;1.60;;;;;;;8.91;100.00;99623.03;5038765;28;20447;-49
2021/10/31 03:22:37;;;;;;;0.40;0.40;;;;;;;8.88;100.00;99615.16;5038706;28;21006;-47
2021/10/31 03:25:04;;;;;;;0.30;0.27;;;;;;;8.98;100.00;99619.25;5032750;28;20568;-48
2021/10/31 03:27:31;;;;;;;0.30;0.30;;;;;;;9.09;100.00;99616.25;5035278;28;20454;-48
2021/10/31 03:29:58;;;;;;;0.40;0.30;;;;;;;9.38;100.00;99607.31;5039860;28;20830;-48
2021/10/31 03:32:24;;;;;;;5.90;2.00;;;;;;;9.51;100.00;99605.97;5036061;28;20451;-48
2021/10/31 03:34:51;;;;;;;2.17;2.00;;;;;;;9.71;100.00;99598.13;5036907;28;20437;-51
2021/10/31 03:37:17;;;;;;;0.30;0.20;;;;;;;9.26;100.00;99594.47;5038971;28;20472;-48
2021/10/31 03:39:44;;;;;;;0.30;0.20;;;;;;;9.12;100.00;99594.94;5038351;28;20451;-48
2021/10/31 03:42:10;;;;;;;0.50;0.47;;;;;;;9.01;100.00;99590.00;5032593;28;20468;-48
2021/10/31 03:44:47;;;;;;;0.30;0.20;;;;;;;9.13;100.00;99581.63;5038893;28;20450;-48
2021/10/31 03:47:16;;;;;;;0.30;0.20;;;;;;;8.96;100.00;99586.63;5033121;28;20855;-48
2021/10/31 03:49:43;;;;;;;0.30;0.30;;;;;;;8.90;100.00;99595.63;5035996;28;20898;-48
2021/10/31 03:52:11;;;;;;;0.30;0.20;;;;;;;8.86;100.00;99601.09;5034169;28;20462;-48
2021/10/31 03:54:37;;;;;;;0.30;0.20;;;;;;;8.76;100.00;99592.56;5026562;28;20463;-48
2021/10/31 03:57:05;;;;;;;0.30;0.20;;;;;;;8.90;100.00;99606.25;5035842;28;20454;-48
2021/10/31 03:59:31;;;;;;;0.30;0.20;;;;;;;8.90;100.00;99608.91;5042556;28;20448;-47
2021/10/31 04:01:58;;;;;;;0.30;0.30;;;;;;;8.89;100.00;99606.28;5041905;28;20475;-47
2021/10/31 04:04:25;;;;;;;0.30;0.20;;;;;;;9.04;100.00;99603.13;5030896;28;20463;-48
2021/10/31 04:06:52;;;;;;;0.30;0.20;;;;;;;8.98;100.00;99611.31;5043140;28;20975;-48
2021/10/31 04:09:18;;;;;;;0.40;0.30;;;;;;;9.06;100.00;99613.72;5042141;28;20482;-51
2021/10/31 04:11:45;;;;;;;1.33;1.23;;;;;;;9.17;100.00;99611.53;5037155;28;20452;-49
2021/10/31 04:14:12;;;;;;;0.30;0.20;;;;;;;9.10;100.00;99623.28;5044815;28;20572;-48
2021/10/31 04:16:39;;;;;;;2.03;1.93;;;;;;;8.83;100.00;99619.75;5038811;28;20494;-48
2021/10/31 04:19:05;;;;;;;1.83;1.70;;;;;;;8.85;100.00;99615.28;5038753;28;20484;-49
2021/10/31 04:21:32;;;;;;;0.30;0.20;;;;;;;8.79;100.00;99607.53;5040391;28;20476;-48
2021/10/31 04:23:58;;;;;;;0.30;0.20;;;;;;;8.80;100.00;99611.91;5041446;28;20456;-50
2021/10/31 04:26:25;;;;;;;0.90;0.90;;;;;;;8.57;100.00;99597.59;5042584;28;20543;-47
2021/10/31 04:28:52;;;;;;;0.40;0.40;;;;;;;8.45;100.00;99598.00;5040540;28;20796;-49
2021/10/31 04:31:18;;;;;;;0.30;0.20;;;;;;;8.46;100.00;99599.72;5040450;28;20455;-48
2021/10/31 04:33:45;;;;;;;0.83;0.83;;;;;;;8.61;100.00;99601.88;5045049;28;20970;-49
2021/10/31 04:36:12;;;;;;;0.83;0.77;;;;;;;8.50;100.00;99609.31;5036463;28;21086;-48
2021/10/31 04:38:38;;;;;;;0.30;0.20;;;;;;;8.43;100.00;99598.97;5039172;28;20472;-48
2021/10/31 04:41:06;;;;;;;0.30;0.20;;;;;;;8.35;100.00;99598.31;5038487;28;20452;-49
2021/10/31 04:43:33;;;;;;;1.47;1.47;;;;;;;8.33;100.00;99599.19;5036102;28;20488;-48
2021/10/31 04:45:59;;;;;;;0.30;0.20;;;;;;;8.07;100.00;99598.25;5040268;28;20460;-48
2021/10/31 04:48:26;;;;;;;0.40;0.40;;;;;;;8.07;100.00;99595.59;5037179;28;20492;-48
2021/10/31 04:50:53;;;;;;;0.30;0.20;;;;;;;8.03;100.00;99598.34;5038660;28;20614;-49
2021/10/31 04:53:20;;;;;;;0.30;0.20;;;;;;;8.00;100.00;99601.09;5040218;28;20463;-49
2021/10/31 04:55:47;;;;;;;0.30;0.20;;;;;;;8.17;100.00;99608.53;5038783;28;20529;-49
2021/10/31 04:58:14;;;;;;;0.30;0.20;;;;;;;8.24;100.00;99614.53;5030486;28;20472;-48
2021/10/31 05:00:41;;;;;;;0.30;0.20;;;;;;;8.41;100.00;99603.44;5042217;28;20462;-49
2021/10/31 05:03:08;;;;;;;0.30;0.20;;;;;;;8.15;100.00;99599.75;5039150;28;20451;-48
2021/10/31 05:05:35;;;;;;;2.63;2.43;;;;;;;8.08;100.00;99590.25;5036730;28;20504;-51
2021/10/31 05:08:02;;;;;;;1.33;1.03;;;;;;;8.19;100.00;99596.09;5039702;28;20479;-48
2021/10/31 05:10:29;;;;;;;0.30;0.20;;;;;;;8.22;100.00;99601.34;5035406;28;20455;-48
2021/10/31 05:12:55;;;;;;;0.30;0.20;;;;;;;8.23;100.00;99605.72;5041297;28;20512;-48
2021/10/31 05:15:22;;;;;;;0.40;0.37;;;;;;;8.08;100.00;99598.19;5040119;28;20451;-49
2021/10/31 05:17:50;;;;;;;0.30;0.20;;;;;;;8.16;100.00;99600.63;5035825;28;20449;-48
2021/10/31 05:20:18;;;;;;;0.30;0.20;;;;;;;8.17;100.00;99586.47;5041611;28;20954;-50
2021/10/31 05:22:45;;;;;;;0.30;0.20;;;;;;;8.16;100.00;99592.69;5032321;28;20448;-48
2021/10/31 05:25:12;;;;;;;0.30;0.20;;;;;;;8.33;100.00;99593.03;5034570;28;20510;-48
2021/10/31 05:27:39;;;;;;;0.30;0.30;;;;;;;8.32;100.00;99586.00;5034679;28;20609;-49
2021/10/31 05:30:09;;;;;;;1.30;1.30;;;;;;;8.24;100.00;99580.97;5041195;28;20492;-49
2021/10/31 05:32:38;;;;;;;0.30;0.30;;;;;;;8.09;100.00;99573.50;5037503;28;20451;-48
2021/10/31 05:35:07;;;;;;;0.30;0.20;;;;;;;8.06;100.00;99567.41;5033407;28;20456;-48
2021/10/31 05:37:41;;;;;;;0.40;0.30;;;;;;;8.09;100.00;99569.97;5036846;28;20468;-48
2021/10/31 05:40:10;;;;;;;0.30;0.20;;;;;;;8.06;100.00;99568.28;5029023;28;20492;-48
2021/10/31 05:42:38;;;;;;;0.30;0.20;;;;;;;7.98;100.00;99573.81;5048725;28;20455;-49
2021/10/31 05:45:07;;;;;;;0.30;0.20;;;;;;;7.94;100.00;99579.22;5029499;28;20506;-49
2021/10/31 05:47:41;;;;;;;0.30;0.20;;;;;;;7.84;100.00;99569.84;5033381;28;20494;-48
2021/10/31 05:50:11;;;;;;;0.30;0.20;;;;;;;7.95;100.00;99581.84;5037923;28;20580;-49
2021/10/31 05:52:39;;;;;;;0.30;0.20;;;;;;;7.84;100.00;99569.84;5041906;28;20509;-48
2021/10/31 05:55:07;;;;;;;0.30;0.30;;;;;;;7.92;100.00;99567.81;5040225;28;20537;-48
2021/10/31 05:57:34;;;;;;;0.40;0.33;;;;;;;7.86;100.00;99568.00;5039748;28;20518;-49
2021/10/31 06:00:05;;;;;;;3.00;1.23;;;;;;;7.72;100.00;99552.53;5037166;28;20543;-49
2021/10/31 06:02:32;;;;;;;0.30;0.20;;;;;;;7.66;100.00;99547.41;5043034;28;20465;-49
2021/10/31 06:04:59;;;;;;;0.30;0.20;;;;;;;7.74;100.00;99548.06;5039395;28;20458;-50
2021/10/31 06:07:26;;;;;;;0.30;0.20;;;;;;;7.86;100.00;99546.84;5036041;28;20470;-49
2021/10/31 06:09:55;;;;;;;0.40;0.30;;;;;;;7.75;100.00;99543.63;5038954;28;20484;-49
2021/10/31 06:12:22;;;;;;;0.30;0.20;;;;;;;7.82;100.00;99554.00;5038278;28;20995;-49
2021/10/31 06:14:49;;;;;;;0.30;0.20;;;;;;;7.92;100.00;99566.03;5040350;28;20497;-50
2021/10/31 06:17:16;;;;;;;0.30;0.20;;;;;;;7.98;100.00;99560.56;5040824;28;20558;-49
2021/10/31 06:19:44;;;;;;;0.30;0.20;;;;;;;8.10;100.00;99562.00;5033891;28;20513;-48
2021/10/31 06:22:10;;;;;;;0.30;0.20;;;;;;;8.28;100.00;99561.41;5042604;28;20500;-49
2021/10/31 06:24:37;;;;;;;0.30;0.20;;;;;;;8.07;100.00;99559.41;5034161;28;20452;-49
2021/10/31 06:27:04;;;;;;;0.30;0.20;;;;;;;8.55;100.00;99561.50;5032944;28;20491;-48
2021/10/31 06:29:31;;;;;;;0.30;0.20;;;;;;;8.58;100.00;99554.31;5034457;28;20515;-50
2021/10/31 06:31:58;;;;;;;0.97;0.97;;;;;;;8.55;100.00;99562.38;5040783;28;20463;-49
2021/10/31 06:34:24;;;;;;;0.30;0.20;;;;;;;8.35;100.00;99554.16;5035798;28;20501;-49
2021/10/31 06:36:51;;;;;;;0.30;0.20;;;;;;;8.31;100.00;99553.38;5036759;28;20470;-48
2021/10/31 06:39:17;;;;;;;0.30;0.20;;;;;;;8.35;100.00;99548.00;5047277;28;20439;-48
2021/10/31 06:41:44;;;;;;;0.30;0.20;;;;;;;8.44;100.00;99550.38;5034471;28;21007;-49
2021/10/31 06:44:11;;;;;;;0.30;0.23;;;;;;;8.40;100.00;99546.97;5022330;28;20826;-50
2021/10/31 06:46:38;;;;;;;0.30;0.20;;;;;;;8.45;100.00;99549.47;5039988;28;20472;-48
2021/10/31 06:49:05;;;;;;;0.30;0.20;;;;;;;8.30;100.00;99546.34;5036527;28;20515;-48
2021/10/31 06:51:31;;;;;;;0.30;0.23;;;;;;;8.39;100.00;99544.38;5034862;28;20448;-49
2021/10/31 06:53:58;;;;;;;0.30;0.20;;;;;;;8.42;100.00;99549.56;5037460;28;20945;-49
2021/10/31 06:56:26;;;;;;;1.00;0.97;;;;;;;8.49;100.00;99551.09;5035685;28;20462;-50
2021/10/31 06:58:52;;;;;;;0.30;0.20;;;;;;;8.52;100.00;99545.72;5030095;28;20494;-49
2021/10/31 07:01:20;;;;;;;0.30;0.20;;;;;;;8.51;100.00;99544.84;5031234;28;20866;-50
2021/10/31 07:03:48;;;;;;;0.30;0.20;;;;;;;8.47;100.00;99539.69;5025262;28;20861;-48
2021/10/31 07:06:16;;;;;;;0.80;0.80;;;;;;;8.14;100.00;99537.16;5036810;28;20490;-48
2021/10/31 07:08:44;;;;;;;0.30;0.20;;;;;;;8.45;100.00;99542.38;5032854;28;20475;-48
2021/10/31 07:11:11;;;;;;;0.30;0.20;;;;;;;8.52;100.00;99538.63;5034219;28;20455;-49
2021/10/31 07:13:39;;;;;;;0.30;0.20;;;;;;;8.54;100.00;99533.28;5031363;28;20447;-49
2021/10/31 07:16:06;;;;;;;0.30;0.20;;;;;;;8.66;100.00;99521.41;5033791;28;20517;-49
2021/10/31 07:18:33;;;;;;;0.30;0.30;;;;;;;8.58;100.00;99529.59;5034596;28;20467;-50
2021/10/31 07:21:00;;;;;;;0.30;0.20;;;;;;;8.68;100.00;99517.81;5036632;28;20792;-49
2021/10/31 07:23:27;;;;;;;0.30;0.20;;;;;;;8.59;100.00;99520.75;5030283;28;21027;-49
2021/10/31 07:25:54;;;;;;;0.40;0.40;;;;;;;8.57;100.00;99510.19;5031525;28;20511;-48
2021/10/31 07:28:22;;;;;;;0.30;0.20;;;;;;;8.44;100.00;99514.16;5036647;28;20453;-49
2021/10/31 07:30:50;;;;;;;0.30;0.30;;;;;;;8.56;100.00;99503.19;5032950;28;21109;-50
2021/10/31 07:33:17;;;;;;;0.30;0.20;;;;;;;8.72;100.00;99500.88;5035468;28;20456;-49
2021/10/31 07:35:45;;;;;;;2.83;1.80;;;;;;;8.92;100.00;99496.69;5027288;28;20464;-49
2021/10/31 07:38:12;;;;;;;1.33;1.33;;;;;;;8.86;100.00;99488.03;5033411;28;20471;-49
2021/10/31 07:40:39;;;;;;;0.40;0.37;;;;;;;9.01;100.00;99491.91;5031224;28;20451;-49
2021/10/31 07:43:06;;;;;;;2.97;2.00;;;;;;;8.81;100.00;99491.75;5044876;28;20466;-49
2021/10/31 07:45:39;;;;;;;0.30;0.20;;;;;;;8.85;100.00;99496.03;5040828;28;20447;-49
2021/10/31 07:48:06;;;;;;;0.30;0.20;;;;;;;9.18;100.00;99492.22;5036234;28;21045;-49
2021/10/31 07:50:36;;;;;;;0.30;0.20;;;;;;;9.20;100.00;99487.72;5044850;28;20922;-50
2021/10/31 07:53:09;;;;;;;0.30;0.20;;;;;;;9.32;100.00;99485.50;5029479;28;20455;-49
2021/10/31 07:55:38;;;;;;;0.30;0.20;;;;;;;9.30;100.00;99479.41;5034983;28;20439;-48
2021/10/31 07:58:07;;;;;;;0.30;0.27;;;;;;;9.30;100.00;99474.09;5046680;28;20468;-48
2021/10/31 08:00:34;;;;;;;0.50;0.50;;;;;;;9.38;100.00;99480.00;5048429;28;20475;-48
2021/10/31 08:03:01;;;;;;;0.47;0.47;;;;;;;9.46;100.00;99483.25;5044469;28;20932;-49
2021/10/31 08:05:28;;;;;;;0.30;0.20;;;;;;;9.44;100.00;99472.66;5039176;28;20450;-47
2021/10/31 08:07:57;;;;;;;0.30;0.20;;;;;;;9.50;100.00;99468.94;5038781;28;20815;-49
2021/10/31 08:10:25;;;;;;;0.40;0.40;;;;;;;9.57;100.00;99477.50;5039662;28;20482;-49
2021/10/31 08:12:52;;;;;;;0.30;0.20;;;;;;;9.55;100.00;99466.09;5040210;28;20514;-49
2021/10/31 08:15:18;;;;;;;0.30;0.20;;;;;;;9.64;100.00;99463.97;5033007;28;20966;-49
2021/10/31 08:17:45;;;;;;;0.30;0.20;;;;;;;9.77;100.00;99446.66;5031470;28;20476;-50
2021/10/31 08:20:12;;;;;;;0.30;0.30;;;;;;;9.62;100.00;99449.91;5040542;28;20450;-49
2021/10/31 08:22:39;;;;;;;0.80;0.80;;;;;;;9.77;100.00;99451.97;5038527;28;20882;-49
2021/10/31 08:25:06;;;;;;;1.23;0.87;;;;;;;9.77;100.00;99451.09;5037054;28;20459;-49
2021/10/31 08:27:34;;;;;;;0.30;0.20;;;;;;;9.91;100.00;99448.78;5040390;28;20476;-49
2021/10/31 08:30:00;;;;;;;1.07;1.07;;;;;;;9.96;100.00;99440.63;5035385;28;20552;-48
2021/10/31 08:32:28;;;;;;;1.07;1.07;;;;;;;9.92;100.00;99437.22;5038642;28;20427;-48
2021/10/31 08:34:55;;;;;;;0.30;0.20;;;;;;;9.99;100.00;99429.88;5031820;28;20454;-49
2021/10/31 08:37:22;;;;;;;0.93;0.93;;;;;;;9.94;100.00;99415.94;5039562;28;20589;-48
2021/10/31 08:39:48;;;;;;;0.30;0.20;;;;;;;10.09;100.00;99410.00;5038291;28;20451;-49
2021/10/31 08:42:15;;;;;;;0.30;0.20;;;;;;;10.10;100.00;99409.06;5036786;28;20468;-48
2021/10/31 08:44:42;;;;;;;0.60;0.60;;;;;;;10.36;100.00;99408.03;5040220;28;20422;-48
2021/10/31 08:47:09;;;;;;;2.37;2.20;;;;;;;10.46;100.00;99416.47;5034310;28;20896;-48
2021/10/31 08:49:36;;;;;;;0.40;0.40;;;;;;;10.36;100.00;99427.47;5043264;28;20486;-48
2021/10/31 08:52:07;;;;;;;0.30;0.20;;;;;;;10.41;100.00;99423.75;5036388;28;20869;-48
2021/10/31 08:54:36;;;;;;;0.30;0.20;;;;;;;10.54;100.00;99424.97;5039193;28;20868;-48
2021/10/31 08:57:04;;;;;;;1.00;1.00;;;;;;;10.60;100.00;99430.03;5032983;28;20471;-48
2021/10/31 08:59:31;;;;;;;0.50;0.47;;;;;;;10.66;100.00;99424.44;5041704;28;20501;-48
2021/10/31 09:01:58;;;;;;;0.60;0.60;;;;;;;11.10;100.00;99416.31;5038220;28;21008;-48
2021/10/31 09:04:26;;;;;;;0.40;0.40;;;;;;;10.76;100.00;99409.84;5032304;28;20456;-47
2021/10/31 09:06:54;;;;;;;0.40;0.30;;;;;;;10.76;100.00;99411.63;5041355;28;20544;-48
2021/10/31 09:09:24;;;;;;;1.43;1.40;;;;;;;10.76;100.00;99414.31;5035074;28;20479;-48
2021/10/31 09:11:50;;;;;;;0.30;0.20;;;;;;;11.07;100.00;99408.50;5027581;28;20447;-48
2021/10/31 09:14:17;;;;;;;0.97;0.97;;;;;;;11.25;100.00;99410.34;5031045;28;20502;-48
2021/10/31 09:16:44;;;;;;;1.03;1.03;;;;;;;11.31;100.00;99412.72;5030679;28;20845;-49
2021/10/31 09:19:11;;;;;;;0.30;0.20;;;;;;;11.28;100.00;99413.72;5042878;28;20453;-48
2021/10/31 09:21:38;;;;;;;0.73;0.67;;;;;;;11.46;100.00;99404.00;5036490;28;20470;-48
2021/10/31 09:24:05;;;;;;;0.30;0.20;;;;;;;11.47;100.00;99405.75;5051862;28;20443;-48
2021/10/31 09:26:31;;;;;;;0.30;0.20;;;;;;;11.19;100.00;99410.59;5038818;28;20492;-50
2021/10/31 09:28:58;;;;;;;0.30;0.20;;;;;;;11.18;100.00;99406.22;5035810;28;20944;-50
2021/10/31 09:31:25;;;;;;;0.67;0.67;;;;;;;11.14;100.00;99397.53;5031871;28;20491;-50
2021/10/31 09:33:53;;;;;;;0.30;0.20;;;;;;;11.22;100.00;99390.03;5032061;28;20448;-50
2021/10/31 09:36:21;;;;;;;0.30;0.20;;;;;;;11.38;100.00;99386.69;5035349;28;20592;-51
2021/10/31 09:38:52;;;;;;;0.30;0.20;;;;;;;11.61;100.00;99390.91;5030708;28;20540;-50
2021/10/31 09:41:24;;;;;;;0.67;0.67;;;;;;;11.67;100.00;99388.84;5035606;28;20869;-50
2021/10/31 09:43:58;;;;;;;0.30;0.20;;;;;;;11.58;100.00;99382.16;5032283;28;20443;-50
2021/10/31 09:46:25;;;;;;;0.30;0.20;;;;;;;11.62;100.00;99385.53;5037552;28;20429;-50
2021/10/31 09:48:53;;;;;;;0.30;0.20;;;;;;;11.62;100.00;99379.34;5027165;28;20510;-50
2021/10/31 09:51:21;;;;;;;0.43;0.40;;;;;;;11.61;100.00;99381.13;5034348;28;20845;-50
2021/10/31 09:53:48;;;;;;;0.30;0.20;;;;;;;11.76;100.00;99360.91;5029470;28;20451;-50
2021/10/31 09:56:18;;;;;;;2.00;1.90;;;;;;;11.80;100.00;99355.41;5025820;28;20945;-50
2021/10/31 09:58:46;;;;;;;0.30;0.20;;;;;;;11.90;100.00;99350.47;5034286;28;20510;-50
2021/10/31 10:04:25;;;;;;;0.80;0.77;;;;;;;12.24;100.00;99362.13;5046002;28;20447;-50
2021/10/31 10:06:54;;;;;;;0.30;0.20;;;;;;;12.26;100.00;99362.91;5045870;28;20475;-50
2021/10/31 10:09:21;;;;;;;0.83;0.83;;;;;;;12.12;100.00;99351.16;5040266;28;20421;-50
2021/10/31 10:11:49;;;;;;;0.47;0.47;;;;;;;12.41;100.00;99354.13;5039234;28;20502;-50
2021/10/31 10:14:26;;;;;;;0.50;0.50;;;;;;;12.48;100.00;99342.25;5044496;28;20448;-50
2021/10/31 10:17:09;;;;;;;3.53;3.30;;;;;;;12.29;100.00;99336.97;5045685;28;20446;-50
2021/10/31 10:19:44;;;;;;;2.00;2.00;;;;;;;12.27;100.00;99333.53;5044838;28;20486;-50
2021/10/31 10:22:16;;;;;;;0.40;0.40;;;;;;;12.25;100.00;99331.88;5026195;28;20448;-50
2021/10/31 10:24:53;;;;;;;1.13;1.13;;;;;;;12.50;100.00;99323.50;5038911;28;20493;-50
2021/10/31 10:27:26;;;;;;;0.70;0.70;;;;;;;12.67;100.00;99321.66;5043496;28;20474;-50
2021/10/31 10:29:52;;;;;;;0.40;0.30;;;;;;;12.61;100.00;99321.09;5045651;28;20523;-50
2021/10/31 10:32:21;;;;;;;0.33;0.20;;;;;;;12.82;100.00;99325.31;5042255;28;20505;-50
2021/10/31 10:34:56;;;;;;;2.10;0.50;;;;;;;13.00;100.00;99312.78;5038731;28;20442;-50
2021/10/31 10:37:29;;;;;;;0.70;0.70;;;;;;;12.98;100.00;99312.88;5040365;28;20442;-50
2021/10/31 10:40:00;;;;;;;0.30;0.20;;;;;;;12.96;100.00;99311.25;5045570;28;20478;-50
2021/10/31 10:42:36;;;;;;;0.30;0.20;;;;;;;12.95;100.00;99307.72;5045400;28;20520;-50
2021/10/31 10:45:05;;;;;;;0.30;0.20;;;;;;;13.11;100.00;99302.41;5044282;28;20860;-50
2021/10/31 10:47:32;;;;;;;0.30;0.20;;;;;;;13.07;100.00;99300.00;5045307;28;20472;-50
2021/10/31 10:50:00;;;;;;;0.47;0.47;;;;;;;13.12;100.00;99282.78;5040333;28;20461;-50
2021/10/31 10:52:40;;;;;;;1.17;1.17;;;;;;;13.20;100.00;99264.59;5036435;28;20927;-50
2021/10/31 10:55:14;;;;;;;0.30;0.30;;;;;;;13.72;100.00;99268.78;5026892;28;20451;-51
2021/10/31 10:57:46;;;;;;;0.30;0.20;;;;;;;13.57;100.00;99265.19;5036286;28;20470;-50
2021/10/31 11:00:22;;;;;;;0.40;0.20;;;;;;;13.60;100.00;99257.84;5041225;28;20488;-50
2021/10/31 11:03:00;;;;;;;0.30;0.20;;;;;;;13.80;100.00;99254.00;5018667;28;20462;-50
2021/10/31 11:05:32;;;;;;;0.40;0.40;;;;;;;14.01;100.00;99248.38;5033824;28;20505;-50
2021/10/31 11:07:59;;;;;;;0.30;0.20;;;;;;;14.15;100.00;99241.25;5032768;28;20450;-50
2021/10/31 11:10:29;;;;;;;0.30;0.30;;;;;;;14.25;100.00;99236.19;5049156;28;20548;-51
2021/10/31 11:12:58;;;;;;;0.30;0.20;;;;;;;14.44;100.00;99231.47;5016696;28;20908;-51
2021/10/31 11:15:30;;;;;;;1.43;1.43;;;;;;;14.44;100.00;99227.94;5040327;28;20800;-51
2021/10/31 11:18:00;;;;;;;0.60;0.60;;;;;;;14.58;100.00;99221.75;5035087;28;20446;-50
2021/10/31 11:20:34;;;;;;;0.37;0.30;;;;;;;14.66;100.00;99216.75;5042481;28;20426;-51
2021/10/31 11:23:03;;;;;;;1.60;1.50;;;;;;;14.49;100.00;99221.34;5027210;28;20793;-51
2021/10/31 11:25:32;;;;;;;0.60;0.60;;;;;;;14.60;100.00;99209.13;5036414;28;20448;-50
2021/10/31 11:28:03;;;;;;;0.30;0.20;;;;;;;14.59;100.00;99210.09;5041525;28;20453;-51
2021/10/31 11:30:33;;;;;;;0.30;0.20;;;;;;;14.63;100.00;99203.59;5049003;28;20488;-50
2021/10/31 11:33:01;;;;;;;2.20;1.33;;;;;;;14.80;100.00;99193.56;5047525;28;20919;-51
2021/10/31 11:35:28;;;;;;;0.50;0.50;;;;;;;15.07;100.00;99188.22;5034237;28;20422;-50
2021/10/31 11:38:00;;;;;;;0.30;0.20;;;;;;;15.05;100.00;99190.16;5047747;28;20495;-51
2021/10/31 11:40:36;;;;;;;0.33;0.27;;;;;;;15.00;100.00;99189.59;5049532;28;20447;-50
2021/10/31 11:43:07;;;;;;;0.97;0.97;;;;;;;14.99;100.00;99181.69;5047505;28;21027;-51
2021/10/31 11:45:36;;;;;;;0.40;0.33;;;;;;;15.03;100.00;99188.53;5039734;28;20852;-51